ADDS METAR Data INFO
IDs: Format: Raw Decoded Include TAF

Data at: 1849 UTC 16 Dec 2017

KRDU 161751Z 27005KT 10SM FEW250 08/M06 A3022 RMK AO2 SLP236 T00831056 10083 21039 58020
KRDU 161651Z 31008KT 10SM FEW250 07/M06 A3025 RMK AO2 SLP246 T00721061
KRDU 161551Z 27005KT 10SM FEW250 06/M05 A3026 RMK AO2 SLP251 T00611050
KRDU 161451Z 27005KT 10SM FEW250 04/M04 A3028 RMK AO2 SLP256 T00391044 51017
KRDU 161351Z 00000KT 10SM FEW250 00/M04 A3027 RMK AO2 SLP254 T00001044
KRDU 161251Z 00000KT 10SM FEW250 M04/M07 A3025 RMK AO2 SLP248 T10391067
KRDU 161151Z 00000KT 10SM FEW250 M04/M07 A3023 RMK AO2 SLP239 T10391067 11011 21044 53017
KRDU 161051Z 00000KT 9SM FEW250 M04/M06 A3021 RMK AO2 SLP232 T10391061
KRDU 160951Z 00000KT 10SM FEW250 M03/M06 A3019 RMK AO2 SLP225 T10281061
KRDU 160851Z 00000KT 10SM FEW250 M02/M07 A3018 RMK AO2 SLP221 T10221067 53015
KRDU 160751Z 00000KT 10SM FEW250 M02/M06 A3016 RMK AO2 SLP216 T10171061
KRDU 160651Z 00000KT 10SM CLR M03/M06 A3014 RMK AO2 SLP209 T10281061
KRDU 160551Z 26003KT 10SM FEW250 M02/M06 A3013 RMK AO2 SLP206 T10171056 10028 21017 51017
KRDU 160451Z 28003KT 10SM CLR M01/M05 A3013 RMK AO2 SLP204 T10061050 400611006
KRDU 160351Z 29003KT 10SM FEW250 01/M04 A3010 RMK AO2 SLP197 T00061044
KRDU 160251Z 29003KT 10SM FEW250 01/M03 A3008 RMK AO2 SLP189 T00061033 51021
KRDU 160151Z 00000KT 10SM SCT230 00/M03 A3006 RMK AO2 SLP183 T00001033
KRDU 160051Z 27003KT 10SM SCT230 01/M03 A3004 RMK AO2 SLP176 T00111033
KRDU 152351Z 00000KT 10SM BKN220 03/M03 A3002 RMK AO2 SLP168 T00281028 10061 20028 53022
KRDU 152251Z 00000KT 10SM FEW150 BKN190 BKN250 04/M03 A2999 RMK AO2 SLP159 T00391028
KRDU 152151Z 30004KT 10SM FEW150 BKN200 OVC250 04/M03 A2997 RMK AO2 SLP149 T00441033
KRDU 152051Z VRB04KT 10SM FEW150 BKN190 OVC250 05/M03 A2995 RMK AO2 SLP146 T00501028 53008
KRDU 151951Z 29006KT 10SM FEW150 BKN180 OVC250 06/M02 A2994 RMK AO2 SLP142 T00561022
KRDU 151851Z 29007KT 240V310 10SM BKN190 OVC250 06/M03 A2994 RMK AO2 SLP140 T00611028
KRDU 151751Z 30005KT 10SM BKN210 OVC250 05/M03 A2993 RMK AO2 SLP137 T00501028 10056 20000 58026
KRDU 151651Z 30006KT 10SM FEW020 SCT180 BKN250 04/M03 A2996 RMK AO2 SLP147 T00441033
KRDU 151551Z 02004KT 10SM FEW022 FEW180 BKN250 03/M04 A2999 RMK AO2 SLP157 T00331039
KRDU 151451Z 07005KT 10SM SCT021 SCT180 BKN250 03/M04 A3001 RMK AO2 SLP163 T00281044 55002
KRDU 151351Z 06007KT 10SM SCT023 BKN180 BKN250 01/M04 A3000 RMK AO2 SLP161 T00111044
KRDU 151251Z 35004KT 10SM FEW140 BKN180 BKN250 00/M04 A2999 RMK AO2 SLP159 T00001039
KRDU 151151Z 36003KT 10SM FEW160 BKN200 BKN250 01/M04 A3001 RMK AO2 SLP165 T00061039 10022 20006 53002
KRDU 151051Z 07007KT 10SM BKN160 OVC200 01/M03 A2999 RMK AO2 SLP157 T00111033
KRDU 150951Z 07005KT 10SM SCT150 OVC190 02/M03 A3000 RMK AO2 SLP159 T00171028
KRDU 150851Z 07008KT 10SM BKN190 02/M03 A3001 RMK AO2 SLP161 T00171028 58007
KRDU 150751Z 06006KT 10SM FEW200 01/M02 A3002 RMK AO2 SLP165 T00061022
KRDU 150651Z 07007KT 10SM FEW200 02/M02 A3002 RMK AO2 SLP166 T00171022